Time;durP1;ratioP1;P1;durP2;ratioP2;P2;SDS_P1;SDS_P2;PMS_P1;PMS_P2;Temp;Humidity;BMP_temperature;BMP_pressure;BME280_temperature;BME280_humidity;BME280_pressure;Samples;Min_cycle;Max_cycle;Signal;HPM_P1;HPM_P2
2022/05/20 00:01:27;;;;;;;;;;;19.10;88.60;;;;;;5048813;28;19913;-73
2022/05/20 00:03:52;;;;;;;;;;;19.10;88.30;;;;;;5048799;28;20355;-74
2022/05/20 00:06:18;;;;;;;;;;;19.00;88.60;;;;;;5048584;28;19916;-73
2022/05/20 00:08:44;;;;;;;;;;;19.00;89.00;;;;;;5054964;28;19913;-73
2022/05/20 00:11:09;;;;;;;;;;;19.00;88.40;;;;;;5066810;28;19913;-72
2022/05/20 00:13:35;;;;;;;;;;;18.90;88.60;;;;;;5065747;28;20002;-73
2022/05/20 00:16:01;;;;;;;;;;;18.90;88.70;;;;;;5063034;28;19912;-73
2022/05/20 00:18:26;;;;;;;;;;;18.90;88.10;;;;;;5066785;28;19923;-73
2022/05/20 00:20:52;;;;;;;;;;;18.90;88.60;;;;;;5063685;28;20668;-73
2022/05/20 00:23:18;;;;;;;;;;;18.90;89.30;;;;;;5066703;28;19970;-73
2022/05/20 00:25:46;;;;;;;;;;;18.80;89.30;;;;;;5036612;28;19913;-73
2022/05/20 00:28:16;;;;;;;;;;;18.80;89.60;;;;;;5008888;28;19921;-73
2022/05/20 00:30:41;;;;;;;;;;;18.80;90.10;;;;;;5046553;28;20246;-73
2022/05/20 00:33:07;;;;;;;;;;;18.80;90.10;;;;;;5066557;28;19916;-73
2022/05/20 00:35:33;;;;;;;;;;;18.70;90.10;;;;;;5063485;28;19927;-73
2022/05/20 00:37:58;;;;;;;;;;;18.70;90.30;;;;;;5061998;28;19916;-73
2022/05/20 00:40:25;;;;;;;;;;;18.70;89.30;;;;;;5049167;28;19912;-72
2022/05/20 00:42:51;;;;;;;;;;;18.70;89.50;;;;;;5064752;28;20564;-73
2022/05/20 00:45:17;;;;;;;;;;;18.60;90.10;;;;;;5052115;28;19982;-73
2022/05/20 00:47:43;;;;;;;;;;;18.60;90.20;;;;;;5066602;28;19965;-73
2022/05/20 00:50:10;;;;;;;;;;;18.60;90.30;;;;;;5059183;28;19936;-73
2022/05/20 00:52:37;;;;;;;;;;;18.60;90.40;;;;;;5058046;28;19918;-73
2022/05/20 00:55:06;;;;;;;;;;;18.60;90.40;;;;;;5062498;28;19921;-72
2022/05/20 00:57:34;;;;;;;;;;;18.50;90.40;;;;;;5053542;28;19912;-73
2022/05/20 01:00:02;;;;;;;;;;;18.50;90.40;;;;;;5039880;28;19917;-73
2022/05/20 01:02:30;;;;;;;;;;;18.50;90.40;;;;;;5055486;28;19912;-73
2022/05/20 01:04:59;;;;;;;;;;;18.40;90.40;;;;;;5065759;28;19921;-73
2022/05/20 01:07:26;;;;;;;;;;;18.40;90.40;;;;;;5062697;28;19955;-73
2022/05/20 01:09:52;;;;;;;;;;;18.40;90.50;;;;;;5038603;28;19917;-73
2022/05/20 01:12:17;;;;;;;;;;;18.40;90.50;;;;;;5054227;28;20651;-73
2022/05/20 01:14:43;;;;;;;;;;;18.40;90.50;;;;;;5055770;28;20266;-73
2022/05/20 01:17:09;;;;;;;;;;;18.30;90.50;;;;;;5051593;28;19994;-73
2022/05/20 01:19:36;;;;;;;;;;;18.30;90.60;;;;;;5065156;28;19950;-74
2022/05/20 01:22:03;;;;;;;;;;;18.30;90.60;;;;;;5063033;28;20069;-73
2022/05/20 01:24:28;;;;;;;;;;;18.20;90.60;;;;;;5065578;28;20325;-73
2022/05/20 01:26:53;;;;;;;;;;;18.20;90.40;;;;;;5062786;28;19920;-73
2022/05/20 01:29:19;;;;;;;;;;;18.20;90.60;;;;;;5065886;28;19935;-72
2022/05/20 01:31:45;;;;;;;;;;;18.20;90.70;;;;;;5064012;28;19923;-73
2022/05/20 01:34:10;;;;;;;;;;;18.20;90.80;;;;;;5046128;28;19921;-73
2022/05/20 01:36:36;;;;;;;;;;;18.10;90.70;;;;;;5064804;28;19938;-72
2022/05/20 01:39:01;;;;;;;;;;;18.10;90.70;;;;;;5049003;28;19923;-73
2022/05/20 01:41:35;;;;;;;;;;;18.10;90.70;;;;;;5044736;28;19959;-72
2022/05/20 01:44:11;;;;;;;;;;;18.10;90.70;;;;;;5054433;28;19958;-73
2022/05/20 01:46:38;;;;;;;;;;;18.10;90.70;;;;;;5044098;28;20011;-73
2022/05/20 01:49:23;;;;;;;;;;;18.00;90.80;;;;;;5038605;28;20528;-72
2022/05/20 01:51:49;;;;;;;;;;;18.00;90.50;;;;;;5064583;28;19923;-73
2022/05/20 01:54:24;;;;;;;;;;;18.00;90.60;;;;;;5051283;28;19916;-73
2022/05/20 01:56:59;;;;;;;;;;;18.00;90.60;;;;;;5061537;28;20605;-73
2022/05/20 01:59:33;;;;;;;;;;;18.00;90.60;;;;;;5055273;28;19920;-73
2022/05/20 02:02:02;;;;;;;;;;;18.00;90.70;;;;;;5045285;28;19917;-73
2022/05/20 02:04:31;;;;;;;;;;;18.00;90.60;;;;;;5055410;28;19948;-73
2022/05/20 02:06:58;;;;;;;;;;;18.00;90.70;;;;;;5065392;28;19923;-73
2022/05/20 02:09:27;;;;;;;;;;;17.90;90.60;;;;;;5047804;28;19938;-73
2022/05/20 02:11:54;;;;;;;;;;;17.90;90.70;;;;;;5046059;28;19994;-73
2022/05/20 02:14:23;;;;;;;;;;;17.90;90.70;;;;;;5056071;28;19917;-74
2022/05/20 02:16:57;;;;;;;;;;;17.90;90.60;;;;;;5045226;28;19912;-73
2022/05/20 02:19:44;;;;;;;;;;;17.90;90.70;;;;;;5050400;28;20380;-74
2022/05/20 02:22:17;;;;;;;;;;;17.90;90.70;;;;;;5068644;28;19916;-73
2022/05/20 02:24:43;;;;;;;;;;;17.90;90.80;;;;;;5048190;28;19920;-74
2022/05/20 02:27:17;;;;;;;;;;;17.80;90.90;;;;;;5068597;28;20620;-73
2022/05/20 02:29:46;;;;;;;;;;;17.80;90.90;;;;;;5065901;28;19920;-73
2022/05/20 02:32:15;;;;;;;;;;;17.80;90.90;;;;;;5068310;28;20580;-73
2022/05/20 02:34:40;;;;;;;;;;;17.80;90.90;;;;;;5040604;28;19963;-73
2022/05/20 02:37:19;;;;;;;;;;;17.80;90.90;;;;;;5068460;28;20286;-73
2022/05/20 02:39:44;;;;;;;;;;;17.80;90.90;;;;;;5050504;28;19947;-73
2022/05/20 02:42:10;;;;;;;;;;;17.80;90.90;;;;;;5066691;28;19962;-73
2022/05/20 02:44:35;;;;;;;;;;;17.80;91.00;;;;;;5047218;28;19912;-73
2022/05/20 02:47:01;;;;;;;;;;;17.70;91.00;;;;;;5068138;28;19971;-73
2022/05/20 02:49:26;;;;;;;;;;;17.70;91.00;;;;;;5069100;28;19950;-73
2022/05/20 02:51:52;;;;;;;;;;;17.70;91.10;;;;;;5065396;28;20358;-73
2022/05/20 02:54:17;;;;;;;;;;;17.70;91.10;;;;;;5059039;28;19916;-73
2022/05/20 02:56:43;;;;;;;;;;;17.60;91.10;;;;;;5062581;28;20000;-73
2022/05/20 03:04:37;;;;;;;;;;;17.60;91.00;;;;;;5068573;28;19962;-73
2022/05/20 03:07:03;;;;;;;;;;;17.60;91.10;;;;;;5065354;28;19955;-73
2022/05/20 03:09:29;;;;;;;;;;;17.50;91.10;;;;;;5032996;28;20015;-73
2022/05/20 03:11:54;;;;;;;;;;;17.50;91.20;;;;;;5056439;28;19999;-73
2022/05/20 03:14:21;;;;;;;;;;;17.50;91.20;;;;;;5061749;28;19925;-73
2022/05/20 03:16:47;;;;;;;;;;;17.50;91.20;;;;;;5053976;28;19913;-73
2022/05/20 03:19:13;;;;;;;;;;;17.50;91.20;;;;;;5068274;28;19927;-73
2022/05/20 03:21:39;;;;;;;;;;;17.50;91.20;;;;;;5065557;28;19919;-73
2022/05/20 03:24:06;;;;;;;;;;;17.40;91.20;;;;;;5068028;28;20522;-73
2022/05/20 03:26:32;;;;;;;;;;;17.40;91.10;;;;;;5063491;28;20399;-73
2022/05/20 03:29:02;;;;;;;;;;;17.40;91.10;;;;;;5067687;28;19970;-73
2022/05/20 03:31:28;;;;;;;;;;;17.40;91.40;;;;;;5065239;28;19909;-73
2022/05/20 03:33:54;;;;;;;;;;;17.40;91.20;;;;;;5067825;28;19924;-73
2022/05/20 03:36:19;;;;;;;;;;;17.40;91.10;;;;;;5067431;28;19912;-73
2022/05/20 03:38:45;;;;;;;;;;;17.30;91.20;;;;;;5053678;28;20494;-73
2022/05/20 03:41:10;;;;;;;;;;;17.30;91.20;;;;;;5047836;28;19966;-73
2022/05/20 03:43:36;;;;;;;;;;;17.30;91.10;;;;;;5060108;28;19939;-73
2022/05/20 03:46:02;;;;;;;;;;;17.30;91.10;;;;;;5047849;28;19962;-74
2022/05/20 03:48:27;;;;;;;;;;;17.20;91.10;;;;;;5057759;28;20074;-73
2022/05/20 03:50:53;;;;;;;;;;;17.20;91.20;;;;;;5067940;28;20412;-74
2022/05/20 03:53:19;;;;;;;;;;;17.20;91.30;;;;;;5062126;28;19939;-74
2022/05/20 03:55:44;;;;;;;;;;;17.20;91.20;;;;;;5067504;28;19912;-73
2022/05/20 03:58:10;;;;;;;;;;;17.20;91.20;;;;;;5057038;28;19917;-74
2022/05/20 04:01:56;;;;;;;;;;;17.20;91.20;;;;;;5055985;28;19977;-73
2022/05/20 04:03:21;;;;;;;;;;;17.20;91.30;;;;;;5051660;28;19970;-73
2022/05/20 04:05:47;;;;;;;;;;;17.20;91.20;;;;;;5067293;28;19913;-73
2022/05/20 04:08:13;;;;;;;;;;;17.20;91.10;;;;;;5062053;28;20400;-73
2022/05/20 04:10:38;;;;;;;;;;;17.20;91.10;;;;;;5067205;28;19909;-73
2022/05/20 04:13:04;;;;;;;;;;;17.10;91.10;;;;;;5064004;28;19918;-74
2022/05/20 04:15:29;;;;;;;;;;;17.10;91.10;;;;;;5051126;28;19908;-73
2022/05/20 04:17:55;;;;;;;;;;;17.20;91.10;;;;;;5045987;28;19913;-73
2022/05/20 04:20:20;;;;;;;;;;;17.20;91.10;;;;;;5062221;28;19916;-73
2022/05/20 04:22:46;;;;;;;;;;;17.20;91.00;;;;;;5067067;28;19970;-73
2022/05/20 04:25:12;;;;;;;;;;;17.20;91.00;;;;;;5049871;28;19916;-73
2022/05/20 04:27:37;;;;;;;;;;;17.20;90.90;;;;;;5046936;28;19921;-73
2022/05/20 04:30:03;;;;;;;;;;;17.20;90.90;;;;;;5057150;28;20011;-74
2022/05/20 04:32:29;;;;;;;;;;;17.20;90.90;;;;;;5063696;28;19947;-73
2022/05/20 04:34:54;;;;;;;;;;;17.20;91.00;;;;;;5030339;28;19927;-73
2022/05/20 04:37:22;;;;;;;;;;;17.20;91.10;;;;;;5046159;28;19948;-74
2022/05/20 04:39:47;;;;;;;;;;;17.20;91.00;;;;;;5044124;28;19920;-73
2022/05/20 04:47:41;;;;;;;;;;;17.20;91.30;;;;;;5066672;28;19920;-73
2022/05/20 04:50:07;;;;;;;;;;;17.20;91.20;;;;;;5063837;28;19916;-74
2022/05/20 04:52:33;;;;;;;;;;;17.20;91.30;;;;;;5060229;28;19917;-73
2022/05/20 04:54:58;;;;;;;;;;;17.20;91.30;;;;;;5059612;28;19974;-73
2022/05/20 04:57:27;;;;;;;;;;;17.20;91.20;;;;;;5057761;28;20007;-73
2022/05/20 04:59:55;;;;;;;;;;;17.20;91.30;;;;;;5045018;28;20358;-73
2022/05/20 05:02:21;;;;;;;;;;;17.20;91.30;;;;;;5065837;28;20373;-73
2022/05/20 05:04:47;;;;;;;;;;;17.20;91.30;;;;;;5066027;28;19962;-73
2022/05/20 05:07:12;;;;;;;;;;;17.20;91.40;;;;;;5063323;28;20369;-73
2022/05/20 05:09:39;;;;;;;;;;;17.20;91.40;;;;;;5047966;28;19943;-73
2022/05/20 05:12:05;;;;;;;;;;;17.20;91.50;;;;;;5059280;28;19931;-73
2022/05/20 05:14:34;;;;;;;;;;;17.20;91.40;;;;;;5057747;28;19913;-73
2022/05/20 05:17:00;;;;;;;;;;;17.10;91.50;;;;;;5056835;28;19962;-73
2022/05/20 05:19:25;;;;;;;;;;;17.10;91.50;;;;;;5065041;28;19913;-73
2022/05/20 05:21:51;;;;;;;;;;;17.10;91.50;;;;;;5063117;28;20361;-73
2022/05/20 05:24:16;;;;;;;;;;;17.20;91.70;;;;;;5065805;28;19982;-74
2022/05/20 05:26:42;;;;;;;;;;;17.10;91.60;;;;;;5062560;28;20537;-73
2022/05/20 05:29:07;;;;;;;;;;;17.10;91.60;;;;;;5065596;28;19927;-73
2022/05/20 05:31:33;;;;;;;;;;;17.10;91.70;;;;;;5060982;28;20564;-74
2022/05/20 05:33:59;;;;;;;;;;;17.10;91.60;;;;;;5065288;28;19927;-73
2022/05/20 05:36:25;;;;;;;;;;;17.10;91.70;;;;;;5062132;28;20384;-74
2022/05/20 05:38:50;;;;;;;;;;;17.20;91.50;;;;;;5035818;28;19917;-73
2022/05/20 05:41:18;;;;;;;;;;;17.10;91.50;;;;;;5045945;28;20007;-73
2022/05/20 05:43:43;;;;;;;;;;;17.20;91.40;;;;;;5061636;28;20556;-73
2022/05/20 05:46:09;;;;;;;;;;;17.10;91.20;;;;;;5045460;28;19959;-73
2022/05/20 05:48:34;;;;;;;;;;;17.20;90.70;;;;;;5060118;28;19982;-74
2022/05/20 05:51:01;;;;;;;;;;;17.20;90.90;;;;;;5065587;28;19916;-73
2022/05/20 05:53:27;;;;;;;;;;;17.20;90.60;;;;;;5062216;28;20377;-73
2022/05/20 05:56:00;;;;;;;;;;;17.20;90.60;;;;;;5065240;28;19917;-73
2022/05/20 05:58:26;;;;;;;;;;;17.20;90.80;;;;;;5058255;28;20562;-73
2022/05/20 06:00:53;;;;;;;;;;;17.20;90.60;;;;;;5065407;28;20318;-73
2022/05/20 06:03:18;;;;;;;;;;;17.20;90.50;;;;;;5062623;28;19955;-73
2022/05/20 06:05:44;;;;;;;;;;;17.20;90.50;;;;;;5065204;28;20602;-73
2022/05/20 06:08:10;;;;;;;;;;;17.20;90.60;;;;;;5062626;28;19912;-73
2022/05/20 06:10:36;;;;;;;;;;;17.20;90.40;;;;;;5028666;28;20383;-73
2022/05/20 06:13:01;;;;;;;;;;;17.20;90.40;;;;;;5052985;28;19916;-73
2022/05/20 06:15:27;;;;;;;;;;;17.20;90.40;;;;;;5048794;28;19936;-73
2022/05/20 06:17:53;;;;;;;;;;;17.20;90.30;;;;;;5043803;28;19921;-74
2022/05/20 06:20:20;;;;;;;;;;;17.20;90.30;;;;;;5063626;28;19917;-73
2022/05/20 06:22:45;;;;;;;;;;;17.20;90.30;;;;;;5065360;28;19959;-73
2022/05/20 06:25:11;;;;;;;;;;;17.30;90.50;;;;;;5062315;28;20424;-74
2022/05/20 06:27:37;;;;;;;;;;;17.20;90.40;;;;;;5059128;28;20652;-73
2022/05/20 06:30:04;;;;;;;;;;;17.30;90.50;;;;;;5057977;28;20327;-73
2022/05/20 06:32:29;;;;;;;;;;;17.30;90.30;;;;;;5064952;28;20673;-74
2022/05/20 06:40:23;;;;;;;;;;;17.30;90.30;;;;;;5054868;28;19946;-73
2022/05/20 06:42:49;;;;;;;;;;;17.40;90.20;;;;;;5065384;28;20393;-74
2022/05/20 06:45:15;;;;;;;;;;;17.30;90.10;;;;;;5060439;28;19944;-73
2022/05/20 06:47:40;;;;;;;;;;;17.30;90.20;;;;;;5064960;28;20051;-73
2022/05/20 06:50:07;;;;;;;;;;;17.40;90.30;;;;;;5062063;28;20348;-74
2022/05/20 06:52:33;;;;;;;;;;;17.40;90.20;;;;;;5058526;28;19974;-74
2022/05/20 06:54:58;;;;;;;;;;;17.40;90.10;;;;;;5057750;28;20335;-73
2022/05/20 06:57:24;;;;;;;;;;;17.40;90.10;;;;;;5048446;28;20365;-74
2022/05/20 06:59:50;;;;;;;;;;;17.40;90.20;;;;;;5046044;28;19916;-74
2022/05/20 07:02:16;;;;;;;;;;;17.40;90.10;;;;;;5064669;28;20404;-73
2022/05/20 07:04:41;;;;;;;;;;;17.50;90.10;;;;;;5061756;28;20343;-73
2022/05/20 07:07:07;;;;;;;;;;;17.50;89.90;;;;;;5067982;28;19916;-73
2022/05/20 07:09:33;;;;;;;;;;;17.50;90.00;;;;;;5032933;28;20444;-73
2022/05/20 07:11:58;;;;;;;;;;;17.50;89.90;;;;;;5063928;28;19916;-73
2022/05/20 07:14:24;;;;;;;;;;;17.50;89.80;;;;;;5043136;28;19924;-73
2022/05/20 07:16:50;;;;;;;;;;;17.50;89.90;;;;;;5061208;28;19962;-73
2022/05/20 07:19:15;;;;;;;;;;;17.50;89.70;;;;;;5067810;28;19918;-73
2022/05/20 07:21:41;;;;;;;;;;;17.60;90.00;;;;;;5065464;28;19916;-73
2022/05/20 07:24:07;;;;;;;;;;;17.60;90.00;;;;;;5060580;28;19913;-73
2022/05/20 07:26:32;;;;;;;;;;;17.60;89.90;;;;;;5054771;28;19937;-73
2022/05/20 07:28:58;;;;;;;;;;;17.60;89.70;;;;;;5067923;28;19966;-74
2022/05/20 07:31:24;;;;;;;;;;;17.60;89.70;;;;;;5065157;28;20007;-73
2022/05/20 07:33:50;;;;;;;;;;;17.70;89.60;;;;;;5067754;28;19921;-73
2022/05/20 07:36:15;;;;;;;;;;;17.70;89.50;;;;;;5064722;28;20528;-73
2022/05/20 07:38:41;;;;;;;;;;;17.70;89.50;;;;;;5057068;28;19931;-73
2022/05/20 07:41:07;;;;;;;;;;;17.80;89.40;;;;;;5044456;28;19920;-73
2022/05/20 07:43:32;;;;;;;;;;;17.80;89.40;;;;;;5066994;28;19920;-73
2022/05/20 07:45:58;;;;;;;;;;;17.80;89.30;;;;;;5046908;28;19913;-73
2022/05/20 07:48:24;;;;;;;;;;;17.80;89.30;;;;;;5063006;28;20015;-73
2022/05/20 07:50:51;;;;;;;;;;;17.80;89.20;;;;;;5066675;28;19920;-73
2022/05/20 07:53:20;;;;;;;;;;;17.80;89.20;;;;;;5053771;28;19951;-73
2022/05/20 07:56:01;;;;;;;;;;;17.80;89.20;;;;;;5046126;28;19916;-73
2022/05/20 07:58:29;;;;;;;;;;;17.90;89.20;;;;;;5060341;28;19919;-73
2022/05/20 08:00:58;;;;;;;;;;;17.90;89.00;;;;;;5067461;28;20034;-73
2022/05/20 08:06:11;;;;;;;;;;;18.00;88.70;;;;;;5067338;28;19970;-74
2022/05/20 08:08:36;;;;;;;;;;;18.00;88.60;;;;;;5054489;28;19913;-74
2022/05/20 08:11:02;;;;;;;;;;;18.10;88.60;;;;;;5047019;28;19927;-74
2022/05/20 08:13:27;;;;;;;;;;;18.10;88.50;;;;;;5058118;28;20403;-74
2022/05/20 08:15:53;;;;;;;;;;;18.20;88.50;;;;;;5047135;28;19959;-73
2022/05/20 08:18:18;;;;;;;;;;;18.20;88.50;;;;;;5049231;28;20239;-73
2022/05/20 08:20:44;;;;;;;;;;;18.30;88.20;;;;;;5047918;28;20020;-74
2022/05/20 08:23:09;;;;;;;;;;;18.30;88.40;;;;;;5044764;28;19912;-74
2022/05/20 08:25:36;;;;;;;;;;;18.40;88.40;;;;;;5046432;28;19924;-74
2022/05/20 08:28:02;;;;;;;;;;;18.40;88.40;;;;;;5028103;28;20659;-73
2022/05/20 08:30:28;;;;;;;;;;;18.50;88.40;;;;;;5066642;28;20011;-73
2022/05/20 08:32:53;;;;;;;;;;;18.50;88.30;;;;;;5066583;28;19912;-74
2022/05/20 08:35:21;;;;;;;;;;;18.50;87.80;;;;;;5044849;28;20425;-73
2022/05/20 08:37:47;;;;;;;;;;;18.60;87.80;;;;;;5043821;28;20023;-74
2022/05/20 08:40:16;;;;;;;;;;;18.70;88.10;;;;;;5042238;28;19912;-73
2022/05/20 08:42:43;;;;;;;;;;;18.80;87.40;;;;;;5046408;28;19940;-74
2022/05/20 08:45:09;;;;;;;;;;;19.00;87.00;;;;;;5015241;28;20026;-73
2022/05/20 08:47:42;;;;;;;;;;;19.00;86.90;;;;;;5025954;28;19960;-74
2022/05/20 08:50:12;;;;;;;;;;;19.10;86.70;;;;;;5049941;28;19912;-74
2022/05/20 08:52:38;;;;;;;;;;;19.10;86.50;;;;;;5059031;28;20411;-74
2022/05/20 08:55:04;;;;;;;;;;;19.20;86.60;;;;;;5059998;28;19921;-74
2022/05/20 08:57:32;;;;;;;;;;;19.20;86.40;;;;;;5049304;28;19920;-74
2022/05/20 08:59:57;;;;;;;;;;;19.40;86.20;;;;;;5050416;28;19949;-74
2022/05/20 09:02:23;;;;;;;;;;;19.40;86.10;;;;;;5065848;28;19916;-74
2022/05/20 09:04:49;;;;;;;;;;;19.40;86.20;;;;;;5063415;28;20308;-74
2022/05/20 09:07:16;;;;;;;;;;;19.50;85.70;;;;;;5065704;28;20434;-74
2022/05/20 09:09:44;;;;;;;;;;;19.50;85.50;;;;;;5047321;28;19939;-74
2022/05/20 09:12:11;;;;;;;;;;;19.50;85.90;;;;;;5065253;28;19980;-74
2022/05/20 09:17:22;;;;;;;;;;;19.70;85.70;;;;;;5039050;28;19924;-73
2022/05/20 09:19:53;;;;;;;;;;;19.70;85.40;;;;;;5047751;28;19958;-73
2022/05/20 09:22:24;;;;;;;;;;;19.70;85.40;;;;;;5025864;28;19924;-74
2022/05/20 09:24:49;;;;;;;;;;;19.80;85.50;;;;;;5025822;28;20027;-73
2022/05/20 09:27:20;;;;;;;;;;;19.80;85.60;;;;;;5047576;28;20665;-73
2022/05/20 09:29:54;;;;;;;;;;;19.90;85.20;;;;;;5036793;28;19912;-74
2022/05/20 09:32:25;;;;;;;;;;;20.00;85.00;;;;;;5051201;28;19970;-74
2022/05/20 09:35:02;;;;;;;;;;;20.00;84.60;;;;;;5046267;28;19924;-73
2022/05/20 09:37:29;;;;;;;;;;;20.20;84.50;;;;;;5038698;28;19917;-73
2022/05/20 09:39:55;;;;;;;;;;;20.20;84.80;;;;;;5036715;28;20000;-73
2022/05/20 09:42:25;;;;;;;;;;;20.30;84.10;;;;;;5038793;28;20583;-73
2022/05/20 09:44:52;;;;;;;;;;;20.40;84.00;;;;;;5045477;28;20573;-73
2022/05/20 09:47:22;;;;;;;;;;;20.50;83.80;;;;;;5055476;28;19921;-73
2022/05/20 09:49:53;;;;;;;;;;;20.60;83.00;;;;;;5064991;28;20007;-73
2022/05/20 09:52:22;;;;;;;;;;;20.70;83.10;;;;;;5058179;28;20003;-73
2022/05/20 09:54:49;;;;;;;;;;;20.70;82.80;;;;;;5059463;28;19917;-73
2022/05/20 09:57:14;;;;;;;;;;;20.70;82.90;;;;;;5049805;28;19971;-73
2022/05/20 09:59:45;;;;;;;;;;;20.70;83.60;;;;;;5044930;28;19999;-73
2022/05/20 10:02:20;;;;;;;;;;;20.80;83.50;;;;;;5049106;28;20019;-74
2022/05/20 10:04:56;;;;;;;;;;;20.90;83.50;;;;;;5065057;28;19908;-73
2022/05/20 10:07:33;;;;;;;;;;;20.90;83.20;;;;;;5062286;28;19917;-73
2022/05/20 10:10:02;;;;;;;;;;;20.90;83.60;;;;;;5037657;28;19912;-73
2022/05/20 10:12:29;;;;;;;;;;;21.00;83.60;;;;;;5023855;28;20428;-73
2022/05/20 10:15:12;;;;;;;;;;;21.00;82.50;;;;;;5043904;28;19923;-73
2022/05/20 10:17:38;;;;;;;;;;;21.10;82.70;;;;;;5047096;28;19916;-73
2022/05/20 10:20:12;;;;;;;;;;;21.10;82.40;;;;;;5063582;28;19935;-74
2022/05/20 10:22:56;;;;;;;;;;;21.20;83.00;;;;;;5061197;28;19916;-73
2022/05/20 10:25:40;;;;;;;;;;;21.20;82.40;;;;;;5063802;28;19919;-73
2022/05/20 10:34:00;;;;;;;;;;;21.40;82.40;;;;;;5061333;28;19928;-73
2022/05/20 10:36:33;;;;;;;;;;;21.60;82.20;;;;;;5063330;28;19913;-73
2022/05/20 10:39:04;;;;;;;;;;;21.70;81.90;;;;;;5052696;28;19966;-73
2022/05/20 10:41:43;;;;;;;;;;;21.80;82.00;;;;;;5046832;28;19919;-73
2022/05/20 10:50:15;;;;;;;;;;;22.00;81.10;;;;;;5061913;28;19937;-72
2022/05/20 10:52:53;;;;;;;;;;;22.10;81.70;;;;;;5053099;28;20422;-73
2022/05/20 10:55:27;;;;;;;;;;;22.20;81.70;;;;;;5062505;28;19921;-73
2022/05/20 10:57:53;;;;;;;;;;;22.30;81.30;;;;;;5029867;28;19916;-73
2022/05/20 11:00:19;;;;;;;;;;;22.40;81.20;;;;;;5054046;28;19922;-73
2022/05/20 11:03:03;;;;;;;;;;;22.50;80.90;;;;;;5040756;28;19928;-73
2022/05/20 11:05:35;;;;;;;;;;;22.50;80.50;;;;;;5038278;28;19932;-73
2022/05/20 11:08:17;;;;;;;;;;;22.70;79.90;;;;;;5043248;28;19971;-73
2022/05/20 11:10:52;;;;;;;;;;;22.80;79.40;;;;;;5058239;28;19920;-73
2022/05/20 11:13:26;;;;;;;;;;;22.90;79.10;;;;;;5062400;28;19916;-73
2022/05/20 11:15:59;;;;;;;;;;;22.80;79.80;;;;;;5058300;28;19917;-73
2022/05/20 11:18:44;;;;;;;;;;;22.80;79.90;;;;;;5049316;28;19951;-73
2022/05/20 11:21:28;;;;;;;;;;;22.80;80.20;;;;;;5060325;28;20383;-73
2022/05/20 11:23:53;;;;;;;;;;;22.80;80.90;;;;;;5067777;28;20015;-73
2022/05/20 11:26:19;;;;;;;;;;;22.80;81.30;;;;;;5064717;28;20089;-73
2022/05/20 11:28:53;;;;;;;;;;;22.90;81.60;;;;;;5067821;28;19921;-73
2022/05/20 11:31:24;;;;;;;;;;;22.90;81.90;;;;;;5064681;28;20569;-73
2022/05/20 11:34:09;;;;;;;;;;;22.90;82.00;;;;;;5067968;28;19927;-73
2022/05/20 11:36:40;;;;;;;;;;;23.00;82.00;;;;;;5039159;28;20317;-73
2022/05/20 11:39:05;;;;;;;;;;;23.20;81.90;;;;;;5041168;28;19912;-72
2022/05/20 11:42:03;;;;;;;;;;;23.30;81.80;;;;;;5056345;28;19916;-73
2022/05/20 11:44:39;;;;;;;;;;;23.40;81.20;;;;;;4994161;28;19999;-72
2022/05/20 11:47:08;;;;;;;;;;;23.60;81.40;;;;;;5043969;28;19936;-72
2022/05/20 11:49:56;;;;;;;;;;;23.60;80.60;;;;;;5038359;28;19978;-73
2022/05/20 11:52:35;;;;;;;;;;;23.70;80.30;;;;;;5036547;28;20468;-73
2022/05/20 11:55:04;;;;;;;;;;;23.80;80.60;;;;;;5041157;28;19951;-73
2022/05/20 11:57:32;;;;;;;;;;;23.90;80.00;;;;;;5027933;28;19917;-72
2022/05/20 12:00:04;;;;;;;;;;;23.90;80.60;;;;;;5040713;28;19973;-72
2022/05/20 12:02:37;;;;;;;;;;;23.90;80.20;;;;;;5056436;28;19981;-72
2022/05/20 12:05:03;;;;;;;;;;;24.00;80.60;;;;;;5061519;28;19929;-73
2022/05/20 12:07:28;;;;;;;;;;;24.00;80.60;;;;;;5053853;28;19916;-73
2022/05/20 12:09:55;;;;;;;;;;;24.00;80.50;;;;;;5046066;28;20315;-73
2022/05/20 12:12:27;;;;;;;;;;;24.10;80.60;;;;;;5041942;28;19917;-72
2022/05/20 12:15:04;;;;;;;;;;;24.20;80.90;;;;;;5054212;28;20377;-73
2022/05/20 12:17:30;;;;;;;;;;;24.30;80.60;;;;;;5050983;28;19966;-73
2022/05/20 12:25:37;;;;;;;;;;;24.50;80.80;;;;;;5065735;28;19915;-72
2022/05/20 12:28:05;;;;;;;;;;;24.60;80.60;;;;;;5063065;28;19924;-72
2022/05/20 12:30:44;;;;;;;;;;;24.70;80.20;;;;;;5065672;28;20003;-72
2022/05/20 12:33:21;;;;;;;;;;;24.70;81.70;;;;;;5037845;28;20023;-72
2022/05/20 12:36:05;;;;;;;;;;;24.70;80.70;;;;;;5034801;28;19928;-73
2022/05/20 12:38:31;;;;;;;;;;;24.70;80.50;;;;;;5046273;28;20608;-72
2022/05/20 12:40:57;;;;;;;;;;;24.60;80.00;;;;;;5038568;28;19913;-73
2022/05/20 12:44:01;;;;;;;;;;;24.60;80.80;;;;;;5036558;28;19928;-73
2022/05/20 12:46:32;;;;;;;;;;;24.50;80.80;;;;;;4956857;28;19918;-73
2022/05/20 12:48:58;;;;;;;;;;;24.50;81.00;;;;;;4955515;28;19922;-73
2022/05/20 12:51:23;;;;;;;;;;;24.40;81.20;;;;;;4994087;28;19917;-73
2022/05/20 12:53:48;;;;;;;;;;;24.30;81.60;;;;;;5046616;28;19941;-73
2022/05/20 12:56:24;;;;;;;;;;;24.30;81.90;;;;;;5065080;28;20019;-73
2022/05/20 12:58:49;;;;;;;;;;;24.20;82.20;;;;;;5033791;28;19994;-73
2022/05/20 13:01:15;;;;;;;;;;;24.10;82.40;;;;;;5060504;28;20051;-72
2022/05/20 13:03:42;;;;;;;;;;;24.10;83.00;;;;;;5044711;28;22663;-73
2022/05/20 13:06:27;;;;;;;;;;;23.90;83.10;;;;;;5058430;28;20007;-73
2022/05/20 13:08:56;;;;;;;;;;;23.90;83.60;;;;;;5037822;28;19923;-73
2022/05/20 13:11:23;;;;;;;;;;;23.80;84.50;;;;;;5065219;28;19939;-73
2022/05/20 13:13:52;;;;;;;;;;;23.70;84.10;;;;;;5062876;28;19974;-73
2022/05/20 13:16:20;;;;;;;;;;;23.70;84.40;;;;;;5037082;28;19912;-73
2022/05/20 13:18:56;;;;;;;;;;;23.60;84.60;;;;;;5045610;28;19915;-73
2022/05/20 13:21:22;;;;;;;;;;;23.60;84.70;;;;;;5052741;28;19923;-73
2022/05/20 13:23:49;;;;;;;;;;;23.50;84.80;;;;;;5045452;28;19912;-72
2022/05/20 13:26:19;;;;;;;;;;;23.40;85.00;;;;;;5039125;28;19913;-72
2022/05/20 13:28:45;;;;;;;;;;;23.40;85.30;;;;;;5029052;28;19916;-72
2022/05/20 13:31:12;;;;;;;;;;;23.30;85.30;;;;;;5056233;28;19923;-73
2022/05/20 13:33:39;;;;;;;;;;;23.30;85.60;;;;;;5037254;28;19927;-74
2022/05/20 13:36:05;;;;;;;;;;;23.20;85.90;;;;;;5047543;28;19916;-74
2022/05/20 13:38:32;;;;;;;;;;;23.10;86.00;;;;;;5041510;28;19912;-73
2022/05/20 13:40:59;;;;;;;;;;;23.10;86.20;;;;;;5051814;28;19916;-73
2022/05/20 13:43:33;;;;;;;;;;;23.00;86.50;;;;;;5065458;28;19943;-73
2022/05/20 13:51:54;;;;;;;;;;;22.80;86.10;;;;;;5044692;28;20069;-73
2022/05/20 13:54:32;;;;;;;;;;;22.70;86.40;;;;;;5035359;28;19917;-73
2022/05/20 13:56:58;;;;;;;;;;;22.70;86.40;;;;;;5049734;28;19925;-73
2022/05/20 13:59:24;;;;;;;;;;;22.60;85.90;;;;;;5043801;28;19913;-73
2022/05/20 14:01:52;;;;;;;;;;;22.60;86.70;;;;;;5051542;28;19920;-73
2022/05/20 14:04:17;;;;;;;;;;;22.60;85.90;;;;;;5064668;28;19913;-73
2022/05/20 14:06:43;;;;;;;;;;;22.50;85.80;;;;;;5060609;28;20629;-73
2022/05/20 14:09:11;;;;;;;;;;;22.50;84.70;;;;;;5050131;28;20394;-73
2022/05/20 14:11:36;;;;;;;;;;;22.50;84.70;;;;;;5046670;28;19916;-73
2022/05/20 14:14:04;;;;;;;;;;;22.50;84.70;;;;;;5044547;28;19947;-73
2022/05/20 14:16:31;;;;;;;;;;;22.50;84.90;;;;;;5025971;28;19920;-73
2022/05/20 14:19:05;;;;;;;;;;;22.50;84.80;;;;;;5048253;28;19970;-73
2022/05/20 14:21:35;;;;;;;;;;;22.50;84.60;;;;;;5055320;28;19919;-73
2022/05/20 14:24:07;;;;;;;;;;;22.40;84.70;;;;;;5068539;28;19919;-73
2022/05/20 14:26:34;;;;;;;;;;;22.50;86.00;;;;;;5066299;28;19997;-73
2022/05/20 14:28:59;;;;;;;;;;;22.50;86.50;;;;;;5066267;28;19927;-73
2022/05/20 14:31:43;;;;;;;;;;;22.50;87.60;;;;;;5068173;28;19916;-73
2022/05/20 14:34:15;;;;;;;;;;;22.40;86.90;;;;;;5064970;28;20258;-73
2022/05/20 14:36:41;;;;;;;;;;;22.40;86.70;;;;;;5067969;28;19912;-73
2022/05/20 14:39:11;;;;;;;;;;;22.40;87.80;;;;;;5051122;28;19917;-73
2022/05/20 14:41:37;;;;;;;;;;;22.40;88.10;;;;;;5047690;28;20305;-73
2022/05/20 14:44:07;;;;;;;;;;;22.40;88.30;;;;;;5061079;28;19913;-73
2022/05/20 14:49:23;;;;;;;;;;;22.30;88.50;;;;;;5061570;28;19926;-73
2022/05/20 14:51:55;;;;;;;;;;;22.40;89.10;;;;;;5067330;28;20398;-72
2022/05/20 14:54:24;;;;;;;;;;;22.30;89.10;;;;;;5043074;28;19921;-73
2022/05/20 14:56:50;;;;;;;;;;;22.30;89.10;;;;;;5047424;28;20627;-73
2022/05/20 14:59:30;;;;;;;;;;;22.30;89.20;;;;;;5039552;28;19928;-73
2022/05/20 15:01:56;;;;;;;;;;;22.20;87.90;;;;;;5067628;28;19923;-73
2022/05/20 15:04:22;;;;;;;;;;;22.20;87.40;;;;;;5064426;28;20373;-72
2022/05/20 15:06:47;;;;;;;;;;;22.20;87.40;;;;;;5066647;28;19962;-73
2022/05/20 15:09:20;;;;;;;;;;;22.10;86.90;;;;;;5050752;28;19921;-72
2022/05/20 15:11:46;;;;;;;;;;;22.10;86.90;;;;;;5047182;28;19913;-72